createdAt,value
2024-01-12T04:41:31.524Z,101118.41
2024-01-12T04:44:34.866Z,101118.41
2024-01-12T04:47:37.708Z,101125.63
2024-01-12T04:50:40.902Z,101123.00
2024-01-12T04:53:43.681Z,101124.66
2024-01-12T04:56:46.550Z,101124.66
2024-01-12T04:59:49.429Z,101126.50
2024-01-12T05:02:53.981Z,101138.75
2024-01-12T05:05:57.276Z,101147.28
2024-01-12T05:09:01.823Z,101149.06
2024-01-12T05:12:06.310Z,101150.78
2024-01-12T05:15:10.147Z,101153.41
2024-01-12T05:18:13.353Z,101154.22
2024-01-12T05:21:16.469Z,101155.81
2024-01-12T05:24:19.194Z,101154.94
2024-01-12T05:27:23.230Z,101161.84
2024-01-12T05:30:25.881Z,101159.25
2024-01-12T05:33:29.041Z,101174.50
2024-01-12T05:36:32.090Z,101174.34
2024-01-12T05:39:35.044Z,101179.56
2024-01-12T05:42:37.725Z,101181.53
2024-01-12T05:45:40.733Z,101189.37
2024-01-12T05:48:47.712Z,101187.47
2024-01-12T05:51:52.227Z,101196.00
2024-01-12T05:54:56.356Z,101201.88
2024-01-12T05:57:59.437Z,101201.91
2024-01-12T06:01:02.141Z,101199.09
2024-01-12T06:04:05.196Z,101197.03
2024-01-12T06:07:07.874Z,101202.38
2024-01-12T06:10:11.087Z,101196.56
2024-01-12T06:13:14.168Z,101203.91
2024-01-12T06:16:17.068Z,101209.81
2024-01-12T06:19:19.653Z,101207.34
2024-01-12T06:22:22.549Z,101213.03
2024-01-12T06:25:25.309Z,101217.41
2024-01-12T06:28:28.297Z,101213.84
2024-01-12T06:31:32.346Z,101215.72
2024-01-12T06:34:35.422Z,101222.69
2024-01-12T06:37:39.385Z,101219.09
2024-01-12T06:40:45.372Z,101223.50
2024-01-12T06:43:48.585Z,101227.56
2024-01-12T06:46:51.848Z,101224.38
2024-01-12T06:49:55.471Z,101226.16
2024-01-12T06:52:58.562Z,101220.31
2024-01-12T06:56:04.121Z,101224.72
2024-01-12T06:59:07.096Z,101218.81
2024-01-12T07:02:10.557Z,101219.91
2024-01-12T07:05:16.110Z,101222.66
2024-01-12T07:08:19.025Z,101229.53
2024-01-12T07:11:21.941Z,101239.97
2024-01-12T07:14:24.884Z,101245.88
2024-01-12T07:17:27.963Z,101251.88
2024-01-12T07:20:31.326Z,101263.94
2024-01-12T07:23:34.331Z,101270.09
2024-01-12T07:26:37.254Z,101273.56
2024-01-12T07:29:40.358Z,101272.84
2024-01-12T07:32:43.248Z,101274.72
2024-01-12T07:35:46.284Z,101273.13
2024-01-12T07:38:49.033Z,101269.69
2024-01-12T07:41:52.726Z,101274.97
2024-01-12T07:44:55.687Z,101279.34
2024-01-12T07:47:58.823Z,101279.34
2024-01-12T07:51:01.718Z,101280.31
2024-01-12T07:54:05.964Z,101276.16
2024-01-12T07:57:08.729Z,101289.03
2024-01-12T08:00:12.784Z,101291.53
2024-01-12T08:03:15.907Z,101300.91
2024-01-12T08:06:18.468Z,101305.41
2024-01-12T08:09:21.323Z,101303.69
2024-01-12T08:12:24.185Z,101299.44
2024-01-12T08:15:27.314Z,101308.13
2024-01-12T08:18:31.323Z,101307.28
2024-01-12T08:21:44.850Z,101314.22
2024-01-12T08:24:51.920Z,101306.56
2024-01-12T08:27:55.024Z,101311.78
2024-01-12T08:30:57.890Z,101322.13
2024-01-12T08:34:01.037Z,101333.38
2024-01-12T08:37:04.026Z,101329.09
2024-01-12T08:40:07.549Z,101324.87
2024-01-12T08:43:12.578Z,101334.44
2024-01-12T08:46:15.909Z,101336.16
2024-01-12T08:49:18.725Z,101336.31
2024-01-12T08:52:21.558Z,101337.34
2024-01-12T08:55:24.295Z,101340.75
2024-01-12T08:58:27.096Z,101346.75
2024-01-12T09:01:29.592Z,101349.31
2024-01-12T09:04:32.770Z,101344.25
2024-01-12T09:07:35.700Z,101356.31
2024-01-12T09:10:38.493Z,101346.84
2024-01-12T09:13:42.357Z,101352.06
2024-01-12T09:16:46.049Z,101352.03
2024-01-12T09:19:48.747Z,101363.25
2024-01-12T09:22:52.949Z,101351.19
2024-01-12T09:25:56.039Z,101365.84
2024-01-12T09:28:59.104Z,101360.72
2024-01-12T09:32:01.772Z,101367.66
2024-01-12T09:35:05.030Z,101364.25
2024-01-12T09:38:08.223Z,101354.81
2024-01-12T09:41:11.465Z,101355.63
2024-01-12T09:44:18.910Z,101357.38
2024-01-12T09:47:21.940Z,101364.25
2024-01-12T09:50:25.549Z,101359.97
2024-01-12T09:53:28.630Z,101350.53
2024-01-12T09:56:39.556Z,101355.78
2024-01-12T09:59:51.677Z,101364.44
2024-01-12T10:02:54.916Z,101358.41
2024-01-12T10:05:58.195Z,101360.13
2024-01-12T10:09:01.020Z,101360.97
2024-01-12T10:12:04.254Z,101370.44
2024-01-12T10:15:12.379Z,101362.66
2024-01-12T10:18:15.375Z,101355.78
2024-01-12T10:21:20.403Z,101354.09
2024-01-12T10:24:23.102Z,101353.25
2024-01-12T10:27:25.801Z,101356.66
2024-01-12T10:30:32.619Z,101353.22
2024-01-12T10:33:35.924Z,101354.06
2024-01-12T10:36:40.294Z,101352.37
2024-01-12T10:39:46.206Z,101345.50
2024-01-12T10:42:50.066Z,101348.91
2024-01-12T10:45:57.988Z,101343.75
2024-01-12T10:49:17.877Z,101339.41
2024-01-12T10:52:47.087Z,101337.69
2024-01-12T10:55:59.513Z,101337.69
2024-01-12T10:59:02.307Z,101327.34
2024-01-12T11:02:06.127Z,101323.06
2024-01-12T11:05:09.524Z,101324.75
2024-01-12T11:08:12.998Z,101326.50
2024-01-12T11:11:20.448Z,101328.22
2024-01-12T11:14:26.065Z,101328.22
2024-01-12T11:17:34.649Z,101323.03
2024-01-12T11:20:40.081Z,101323.88
2024-01-12T11:23:43.333Z,101328.13
2024-01-12T11:26:46.710Z,101326.41
2024-01-12T11:29:57.900Z,101318.59
2024-01-12T11:33:08.172Z,101323.78
2024-01-12T11:36:15.671Z,101317.75
2024-01-12T11:39:23.652Z,101317.88
2024-01-12T11:42:26.319Z,101313.56
2024-01-12T11:45:30.310Z,101311.78
2024-01-12T11:48:33.435Z,101316.97
2024-01-12T11:51:36.235Z,101306.59
2024-01-12T11:54:39.212Z,101305.78
2024-01-12T11:57:42.178Z,101301.41
2024-01-12T12:00:44.740Z,101298.78
2024-01-12T12:03:47.598Z,101297.03
2024-01-12T12:06:50.173Z,101304.75
2024-01-12T12:09:53.620Z,101306.56
2024-01-12T12:12:56.345Z,101302.34
2024-01-12T12:15:59.822Z,101292.88
2024-01-12T12:19:04.508Z,101293.75
2024-01-12T12:22:08.158Z,101296.31
2024-01-12T12:25:12.526Z,101286.84
2024-01-12T12:28:16.732Z,101283.41
2024-01-12T12:31:19.734Z,101283.41
2024-01-12T12:34:22.791Z,101287.69
2024-01-12T12:37:26.021Z,101281.66
2024-01-12T12:40:29.248Z,101285.09
2024-01-12T12:43:32.297Z,101279.06
2024-01-12T12:46:35.247Z,101278.16
2024-01-12T12:49:43.804Z,101274.75
2024-01-12T12:52:47.113Z,101279.94
2024-01-12T12:55:50.447Z,101273.91
2024-01-12T12:58:53.521Z,101271.28
2024-01-12T13:01:56.357Z,101278.16
2024-01-12T13:04:59.469Z,101276.47
2024-01-12T13:08:02.444Z,101273.06
2024-01-12T13:11:05.351Z,101270.44
2024-01-12T13:14:08.988Z,101265.28
2024-01-12T13:17:12.394Z,101267.84
2024-01-12T13:20:17.834Z,101261.81
2024-01-12T13:23:20.780Z,101259.25
2024-01-12T13:26:23.359Z,101262.69
2024-01-12T13:29:26.289Z,101259.25
2024-01-12T13:32:29.331Z,101265.28
2024-01-12T13:35:33.525Z,101260.94
2024-01-12T13:38:36.401Z,101256.66
2024-01-12T13:41:40.250Z,101245.44
2024-01-12T13:44:43.535Z,101244.59
2024-01-12T13:47:46.446Z,101241.16
2024-01-12T13:50:50.247Z,101246.31
2024-01-12T13:53:56.696Z,101237.69
2024-01-12T13:56:59.498Z,101236.81
2024-01-12T14:00:02.534Z,101241.13
2024-01-12T14:03:13.135Z,101236.84
2024-01-12T14:06:16.480Z,101239.41
2024-01-12T14:09:20.657Z,101240.28
2024-01-12T14:12:24.500Z,101242.72
2024-01-12T14:15:27.172Z,101246.22
2024-01-12T14:18:30.284Z,101246.28
2024-01-12T14:21:33.599Z,101250.56
2024-01-12T14:24:38.299Z,101253.97
2024-01-12T14:27:42.036Z,101251.38
2024-01-12T14:30:46.518Z,101242.75
2024-01-12T14:33:49.941Z,101246.25
2024-01-12T14:36:53.205Z,101234.19
2024-01-12T14:39:55.751Z,101227.34
2024-01-12T14:43:00.008Z,101230.78
2024-01-12T14:46:04.360Z,101230.78
2024-01-12T14:49:09.196Z,101232.53
2024-01-12T14:52:13.045Z,101229.06
2024-01-12T14:55:16.907Z,101236.00
2024-01-12T14:58:21.020Z,101235.09
2024-01-12T15:01:23.928Z,101232.53
2024-01-12T15:04:29.082Z,101249.75
2024-01-12T15:07:33.740Z,101237.72
2024-01-12T15:10:36.924Z,101236.81
2024-01-12T15:13:40.579Z,101236.81
2024-01-12T15:16:45.068Z,101235.09
2024-01-12T15:19:47.892Z,101247.91
2024-01-12T15:22:50.582Z,101246.13
2024-01-12T15:26:04.822Z,101249.53
2024-01-12T15:29:07.608Z,101251.19
2024-01-12T15:32:10.886Z,101240.84
2024-01-12T15:35:14.077Z,101251.97
2024-01-12T15:38:19.504Z,101256.34
2024-01-12T15:41:22.296Z,101246.19
2024-01-12T15:44:25.352Z,101240.19
2024-01-12T15:47:28.392Z,101255.47
2024-01-12T15:50:31.353Z,101264.03
2024-01-12T15:53:34.271Z,101260.56
2024-01-12T15:56:37.475Z,101269.12
2024-01-12T15:59:40.006Z,101269.97
2024-01-12T16:02:43.894Z,101272.50
2024-01-12T16:05:46.976Z,101264.22
2024-01-12T16:08:49.613Z,101258.16
2024-01-12T16:11:55.516Z,101266.44
2024-01-12T16:15:00.513Z,101269.00
2024-01-12T16:18:05.270Z,101264.78
2024-01-12T16:21:08.831Z,101257.94
2024-01-12T16:24:11.937Z,101252.72
2024-01-12T16:27:17.682Z,101254.37
2024-01-12T16:30:20.818Z,101250.97
2024-01-12T16:33:25.040Z,101244.91
2024-01-12T16:36:27.816Z,101246.66
